sensor_id;sensor_type;location;lat;lon;timestamp;temperature;humidity
7598;DHT22;3840;59.32098800;18.06423600;2023-09-19T00:01:42;16.10;99.90
7598;DHT22;3840;59.32098800;18.06423600;2023-09-19T00:04:09;16.10;99.90
7598;DHT22;3840;59.32098800;18.06423600;2023-09-19T00:06:36;16.10;99.90
7598;DHT22;3840;59.32098800;18.06423600;2023-09-19T00:09:03;16.10;99.90
7598;DHT22;3840;59.32098800;18.06423600;2023-09-19T00:11:29;16.10;99.90
7598;DHT22;3840;59.32098800;18.06423600;2023-09-19T00:13:54;16.10;99.90
7598;DHT22;3840;59.32098800;18.06423600;2023-09-19T00:16:20;16.10;99.90
7598;DHT22;3840;59.32098800;18.06423600;2023-09-19T00:18:46;16.20;99.90
7598;DHT22;3840;59.32098800;18.06423600;2023-09-19T00:21:12;16.20;99.90
7598;DHT22;3840;59.32098800;18.06423600;2023-09-19T00:23:38;16.30;99.90
7598;DHT22;3840;59.32098800;18.06423600;2023-09-19T00:26:06;16.20;99.90
7598;DHT22;3840;59.32098800;18.06423600;2023-09-19T00:28:32;16.30;99.90
7598;DHT22;3840;59.32098800;18.06423600;2023-09-19T00:30:58;16.30;99.90
7598;DHT22;3840;59.32098800;18.06423600;2023-09-19T00:33:26;16.30;99.90
7598;DHT22;3840;59.32098800;18.06423600;2023-09-19T00:35:53;16.30;99.90
7598;DHT22;3840;59.32098800;18.06423600;2023-09-19T00:38:20;16.30;99.90
7598;DHT22;3840;59.32098800;18.06423600;2023-09-19T00:40:48;16.40;99.90
7598;DHT22;3840;59.32098800;18.06423600;2023-09-19T00:43:15;16.40;99.90
7598;DHT22;3840;59.32098800;18.06423600;2023-09-19T00:45:45;16.40;99.90
7598;DHT22;3840;59.32098800;18.06423600;2023-09-19T00:48:11;16.50;99.90
7598;DHT22;3840;59.32098800;18.06423600;2023-09-19T00:50:37;16.50;99.90
7598;DHT22;3840;59.32098800;18.06423600;2023-09-19T00:53:08;16.50;99.90
7598;DHT22;3840;59.32098800;18.06423600;2023-09-19T00:55:39;16.60;99.90
7598;DHT22;3840;59.32098800;18.06423600;2023-09-19T00:58:05;16.70;99.90
7598;DHT22;3840;59.32098800;18.06423600;2023-09-19T01:00:33;16.70;99.90
7598;DHT22;3840;59.32098800;18.06423600;2023-09-19T01:03:00;16.70;99.90
7598;DHT22;3840;59.32098800;18.06423600;2023-09-19T01:05:29;16.70;99.90
7598;DHT22;3840;59.32098800;18.06423600;2023-09-19T01:07:57;16.70;99.90
7598;DHT22;3840;59.32098800;18.06423600;2023-09-19T01:10:24;16.70;99.90
7598;DHT22;3840;59.32098800;18.06423600;2023-09-19T01:13:10;16.70;99.90
7598;DHT22;3840;59.32098800;18.06423600;2023-09-19T01:20:45;16.80;99.90
7598;DHT22;3840;59.32098800;18.06423600;2023-09-19T01:23:32;16.90;99.90
7598;DHT22;3840;59.32098800;18.06423600;2023-09-19T01:29:17;16.90;99.90
7598;DHT22;3840;59.32098800;18.06423600;2023-09-19T01:31:51;16.90;99.90
7598;DHT22;3840;59.32098800;18.06423600;2023-09-19T01:34:19;16.90;99.90
7598;DHT22;3840;59.32098800;18.06423600;2023-09-19T01:36:46;16.90;99.90
7598;DHT22;3840;59.32098800;18.06423600;2023-09-19T01:39:12;16.90;99.90
7598;DHT22;3840;59.32098800;18.06423600;2023-09-19T01:42:04;16.90;99.90
7598;DHT22;3840;59.32098800;18.06423600;2023-09-19T01:44:55;16.90;99.90
7598;DHT22;3840;59.32098800;18.06423600;2023-09-19T01:50:11;16.90;99.90
7598;DHT22;3840;59.32098800;18.06423600;2023-09-19T01:52:46;16.90;99.90
7598;DHT22;3840;59.32098800;18.06423600;2023-09-19T01:55:14;16.90;99.90
7598;DHT22;3840;59.32098800;18.06423600;2023-09-19T01:58:01;16.90;99.90
7598;DHT22;3840;59.32098800;18.06423600;2023-09-19T02:00:33;16.90;99.90
7598;DHT22;3840;59.32098800;18.06423600;2023-09-19T02:03:09;16.90;99.90
7598;DHT22;3840;59.32098800;18.06423600;2023-09-19T02:05:35;16.90;99.90
7598;DHT22;3840;59.32098800;18.06423600;2023-09-19T02:08:01;16.90;99.90
7598;DHT22;3840;59.32098800;18.06423600;2023-09-19T02:10:26;17.00;99.90
7598;DHT22;3840;59.32098800;18.06423600;2023-09-19T02:12:52;17.00;99.90
7598;DHT22;3840;59.32098800;18.06423600;2023-09-19T02:15:18;17.00;99.90
7598;DHT22;3840;59.32098800;18.06423600;2023-09-19T02:17:53;17.00;99.90
7598;DHT22;3840;59.32098800;18.06423600;2023-09-19T02:20:41;17.00;99.90
7598;DHT22;3840;59.32098800;18.06423600;2023-09-19T02:23:07;17.00;99.90
7598;DHT22;3840;59.32098800;18.06423600;2023-09-19T02:25:34;17.00;99.90
7598;DHT22;3840;59.32098800;18.06423600;2023-09-19T02:28:00;17.00;99.90
7598;DHT22;3840;59.32098800;18.06423600;2023-09-19T02:30:29;17.00;99.90
7598;DHT22;3840;59.32098800;18.06423600;2023-09-19T02:32:54;17.10;99.90
7598;DHT22;3840;59.32098800;18.06423600;2023-09-19T02:35:20;17.10;99.90
7598;DHT22;3840;59.32098800;18.06423600;2023-09-19T02:37:47;17.10;99.90
7598;DHT22;3840;59.32098800;18.06423600;2023-09-19T02:40:13;17.00;99.90
7598;DHT22;3840;59.32098800;18.06423600;2023-09-19T02:42:48;17.00;99.90
7598;DHT22;3840;59.32098800;18.06423600;2023-09-19T02:45:16;17.10;99.90
7598;DHT22;3840;59.32098800;18.06423600;2023-09-19T02:47:43;17.10;99.90
7598;DHT22;3840;59.32098800;18.06423600;2023-09-19T02:50:09;17.10;99.90
7598;DHT22;3840;59.32098800;18.06423600;2023-09-19T02:52:48;17.10;99.90
7598;DHT22;3840;59.32098800;18.06423600;2023-09-19T02:55:18;17.10;99.90
7598;DHT22;3840;59.32098800;18.06423600;2023-09-19T02:57:49;17.10;99.90
7598;DHT22;3840;59.32098800;18.06423600;2023-09-19T03:00:16;17.00;99.90
7598;DHT22;3840;59.32098800;18.06423600;2023-09-19T03:05:14;17.10;99.90
7598;DHT22;3840;59.32098800;18.06423600;2023-09-19T03:07:40;17.10;99.90
7598;DHT22;3840;59.32098800;18.06423600;2023-09-19T03:10:14;17.10;99.90
7598;DHT22;3840;59.32098800;18.06423600;2023-09-19T03:12:41;17.10;99.90
7598;DHT22;3840;59.32098800;18.06423600;2023-09-19T03:15:08;17.10;99.90
7598;DHT22;3840;59.32098800;18.06423600;2023-09-19T03:17:37;17.10;99.90
7598;DHT22;3840;59.32098800;18.06423600;2023-09-19T03:20:03;17.10;99.90
7598;DHT22;3840;59.32098800;18.06423600;2023-09-19T03:22:34;17.10;99.90
7598;DHT22;3840;59.32098800;18.06423600;2023-09-19T03:25:00;17.10;99.90
7598;DHT22;3840;59.32098800;18.06423600;2023-09-19T03:27:26;17.10;99.90
7598;DHT22;3840;59.32098800;18.06423600;2023-09-19T03:29:52;17.10;99.90
7598;DHT22;3840;59.32098800;18.06423600;2023-09-19T03:32:19;17.10;99.90
7598;DHT22;3840;59.32098800;18.06423600;2023-09-19T03:34:45;17.10;99.90
7598;DHT22;3840;59.32098800;18.06423600;2023-09-19T03:37:14;17.10;99.90
7598;DHT22;3840;59.32098800;18.06423600;2023-09-19T03:39:40;17.10;99.90
7598;DHT22;3840;59.32098800;18.06423600;2023-09-19T03:42:05;17.10;99.90
7598;DHT22;3840;59.32098800;18.06423600;2023-09-19T03:44:32;17.10;99.90
7598;DHT22;3840;59.32098800;18.06423600;2023-09-19T03:46:58;17.10;99.90
7598;DHT22;3840;59.32098800;18.06423600;2023-09-19T03:49:24;17.10;99.90
7598;DHT22;3840;59.32098800;18.06423600;2023-09-19T03:51:50;17.10;99.90
7598;DHT22;3840;59.32098800;18.06423600;2023-09-19T03:54:15;17.10;99.90
7598;DHT22;3840;59.32098800;18.06423600;2023-09-19T03:56:42;17.10;99.90
7598;DHT22;3840;59.32098800;18.06423600;2023-09-19T03:59:09;17.10;99.90
7598;DHT22;3840;59.32098800;18.06423600;2023-09-19T04:01:35;17.10;99.90
7598;DHT22;3840;59.32098800;18.06423600;2023-09-19T04:04:00;17.00;99.90
7598;DHT22;3840;59.32098800;18.06423600;2023-09-19T04:06:34;17.00;99.90
7598;DHT22;3840;59.32098800;18.06423600;2023-09-19T04:09:06;17.00;99.90
7598;DHT22;3840;59.32098800;18.06423600;2023-09-19T04:11:33;17.00;99.90
7598;DHT22;3840;59.32098800;18.06423600;2023-09-19T04:14:29;17.00;99.90
7598;DHT22;3840;59.32098800;18.06423600;2023-09-19T04:16:55;17.00;99.90
7598;DHT22;3840;59.32098800;18.06423600;2023-09-19T04:19:21;17.00;99.90
7598;DHT22;3840;59.32098800;18.06423600;2023-09-19T04:21:48;17.00;99.90
7598;DHT22;3840;59.32098800;18.06423600;2023-09-19T04:24:25;17.00;99.90
7598;DHT22;3840;59.32098800;18.06423600;2023-09-19T04:26:50;17.00;99.90
7598;DHT22;3840;59.32098800;18.06423600;2023-09-19T04:29:16;17.00;99.90
7598;DHT22;3840;59.32098800;18.06423600;2023-09-19T04:34:46;16.90;99.90
7598;DHT22;3840;59.32098800;18.06423600;2023-09-19T04:37:15;16.90;99.90
7598;DHT22;3840;59.32098800;18.06423600;2023-09-19T04:39:40;16.90;99.90
7598;DHT22;3840;59.32098800;18.06423600;2023-09-19T04:42:06;16.90;99.90
7598;DHT22;3840;59.32098800;18.06423600;2023-09-19T04:44:32;17.00;99.90
7598;DHT22;3840;59.32098800;18.06423600;2023-09-19T04:46:57;17.00;99.90
7598;DHT22;3840;59.32098800;18.06423600;2023-09-19T04:49:23;17.00;99.90
7598;DHT22;3840;59.32098800;18.06423600;2023-09-19T04:51:49;17.10;99.90
7598;DHT22;3840;59.32098800;18.06423600;2023-09-19T04:54:14;17.10;99.90
7598;DHT22;3840;59.32098800;18.06423600;2023-09-19T04:56:40;17.10;99.90
7598;DHT22;3840;59.32098800;18.06423600;2023-09-19T04:59:06;17.10;99.90
7598;DHT22;3840;59.32098800;18.06423600;2023-09-19T05:01:32;17.20;99.90
7598;DHT22;3840;59.32098800;18.06423600;2023-09-19T05:03:57;17.20;99.90
7598;DHT22;3840;59.32098800;18.06423600;2023-09-19T05:06:23;17.20;99.90
7598;DHT22;3840;59.32098800;18.06423600;2023-09-19T05:08:52;17.20;99.90
7598;DHT22;3840;59.32098800;18.06423600;2023-09-19T05:11:21;17.20;99.90
7598;DHT22;3840;59.32098800;18.06423600;2023-09-19T05:13:48;17.20;99.90
7598;DHT22;3840;59.32098800;18.06423600;2023-09-19T05:16:16;17.30;99.90
7598;DHT22;3840;59.32098800;18.06423600;2023-09-19T05:18:42;17.20;99.90
7598;DHT22;3840;59.32098800;18.06423600;2023-09-19T05:21:08;17.20;99.90
7598;DHT22;3840;59.32098800;18.06423600;2023-09-19T05:23:34;17.20;99.90
7598;DHT22;3840;59.32098800;18.06423600;2023-09-19T05:25:59;17.20;99.90
7598;DHT22;3840;59.32098800;18.06423600;2023-09-19T05:28:26;17.20;99.90
7598;DHT22;3840;59.32098800;18.06423600;2023-09-19T05:30:53;17.30;99.90
7598;DHT22;3840;59.32098800;18.06423600;2023-09-19T05:33:19;17.30;99.90
7598;DHT22;3840;59.32098800;18.06423600;2023-09-19T05:36:03;17.20;99.90
7598;DHT22;3840;59.32098800;18.06423600;2023-09-19T05:38:29;17.30;99.90
7598;DHT22;3840;59.32098800;18.06423600;2023-09-19T05:40:55;17.30;99.90
7598;DHT22;3840;59.32098800;18.06423600;2023-09-19T05:43:20;17.30;99.90
7598;DHT22;3840;59.32098800;18.06423600;2023-09-19T05:45:46;17.40;99.90
7598;DHT22;3840;59.32098800;18.06423600;2023-09-19T05:48:13;17.40;99.90
7598;DHT22;3840;59.32098800;18.06423600;2023-09-19T05:50:41;17.50;99.90
7598;DHT22;3840;59.32098800;18.06423600;2023-09-19T05:53:07;17.50;99.90
7598;DHT22;3840;59.32098800;18.06423600;2023-09-19T05:55:33;17.60;99.90
7598;DHT22;3840;59.32098800;18.06423600;2023-09-19T05:57:59;17.60;99.90
7598;DHT22;3840;59.32098800;18.06423600;2023-09-19T06:00:25;17.60;99.90
7598;DHT22;3840;59.32098800;18.06423600;2023-09-19T06:02:57;17.60;99.90
7598;DHT22;3840;59.32098800;18.06423600;2023-09-19T06:05:24;17.70;99.90
7598;DHT22;3840;59.32098800;18.06423600;2023-09-19T06:07:52;17.70;99.90
7598;DHT22;3840;59.32098800;18.06423600;2023-09-19T06:10:18;17.70;99.90
7598;DHT22;3840;59.32098800;18.06423600;2023-09-19T06:12:46;17.70;99.90
7598;DHT22;3840;59.32098800;18.06423600;2023-09-19T06:15:14;17.70;99.90
7598;DHT22;3840;59.32098800;18.06423600;2023-09-19T06:17:49;17.80;99.90
7598;DHT22;3840;59.32098800;18.06423600;2023-09-19T06:20:16;17.80;99.90
7598;DHT22;3840;59.32098800;18.06423600;2023-09-19T06:22:42;17.80;99.90
7598;DHT22;3840;59.32098800;18.06423600;2023-09-19T06:25:10;17.80;99.90
7598;DHT22;3840;59.32098800;18.06423600;2023-09-19T06:27:51;17.80;99.90
7598;DHT22;3840;59.32098800;18.06423600;2023-09-19T06:30:21;17.90;99.90
7598;DHT22;3840;59.32098800;18.06423600;2023-09-19T06:32:49;17.90;99.90
7598;DHT22;3840;59.32098800;18.06423600;2023-09-19T06:35:16;17.90;99.90
7598;DHT22;3840;59.32098800;18.06423600;2023-09-19T06:37:42;17.90;99.90
7598;DHT22;3840;59.32098800;18.06423600;2023-09-19T06:40:09;17.90;99.90
7598;DHT22;3840;59.32098800;18.06423600;2023-09-19T06:43:00;17.90;99.90
7598;DHT22;3840;59.32098800;18.06423600;2023-09-19T06:45:28;17.90;99.90
7598;DHT22;3840;59.32098800;18.06423600;2023-09-19T06:47:54;18.00;99.90
7598;DHT22;3840;59.32098800;18.06423600;2023-09-19T06:50:23;18.00;99.90
7598;DHT22;3840;59.32098800;18.06423600;2023-09-19T06:55:57;18.00;99.90
7598;DHT22;3840;59.32098800;18.06423600;2023-09-19T06:58:23;18.00;99.90
7598;DHT22;3840;59.32098800;18.06423600;2023-09-19T07:00:48;17.90;99.90
7598;DHT22;3840;59.32098800;18.06423600;2023-09-19T07:03:16;17.90;99.90
7598;DHT22;3840;59.32098800;18.06423600;2023-09-19T07:05:47;17.80;99.90
7598;DHT22;3840;59.32098800;18.06423600;2023-09-19T07:08:14;17.80;99.90
7598;DHT22;3840;59.32098800;18.06423600;2023-09-19T07:10:41;17.80;99.90
7598;DHT22;3840;59.32098800;18.06423600;2023-09-19T07:13:08;17.70;99.90
7598;DHT22;3840;59.32098800;18.06423600;2023-09-19T07:15:37;17.60;99.90
7598;DHT22;3840;59.32098800;18.06423600;2023-09-19T07:18:15;17.70;99.90
7598;DHT22;3840;59.32098800;18.06423600;2023-09-19T07:20:42;17.70;99.90
7598;DHT22;3840;59.32098800;18.06423600;2023-09-19T07:23:18;17.70;99.90
7598;DHT22;3840;59.32098800;18.06423600;2023-09-19T07:25:47;17.60;99.90
7598;DHT22;3840;59.32098800;18.06423600;2023-09-19T07:28:14;17.60;99.90
7598;DHT22;3840;59.32098800;18.06423600;2023-09-19T07:30:40;17.70;99.90
7598;DHT22;3840;59.32098800;18.06423600;2023-09-19T07:33:07;17.70;99.90
7598;DHT22;3840;59.32098800;18.06423600;2023-09-19T07:35:33;17.70;99.90
7598;DHT22;3840;59.32098800;18.06423600;2023-09-19T07:37:59;17.60;99.90
7598;DHT22;3840;59.32098800;18.06423600;2023-09-19T07:40:27;17.70;99.90
7598;DHT22;3840;59.32098800;18.06423600;2023-09-19T07:42:55;17.70;99.90
7598;DHT22;3840;59.32098800;18.06423600;2023-09-19T07:45:21;17.70;99.90
7598;DHT22;3840;59.32098800;18.06423600;2023-09-19T07:47:51;17.70;99.90
7598;DHT22;3840;59.32098800;18.06423600;2023-09-19T07:50:18;17.80;99.90
7598;DHT22;3840;59.32098800;18.06423600;2023-09-19T07:52:44;17.80;99.90
7598;DHT22;3840;59.32098800;18.06423600;2023-09-19T07:55:10;17.80;99.90
7598;DHT22;3840;59.32098800;18.06423600;2023-09-19T07:57:40;17.90;99.90
7598;DHT22;3840;59.32098800;18.06423600;2023-09-19T08:00:06;17.90;99.90
7598;DHT22;3840;59.32098800;18.06423600;2023-09-19T08:02:36;17.90;99.90
7598;DHT22;3840;59.32098800;18.06423600;2023-09-19T08:05:04;18.00;99.90
7598;DHT22;3840;59.32098800;18.06423600;2023-09-19T08:07:37;18.00;99.90
7598;DHT22;3840;59.32098800;18.06423600;2023-09-19T08:10:04;18.10;99.90
7598;DHT22;3840;59.32098800;18.06423600;2023-09-19T08:12:34;18.20;99.90
7598;DHT22;3840;59.32098800;18.06423600;2023-09-19T08:15:02;18.20;99.90
7598;DHT22;3840;59.32098800;18.06423600;2023-09-19T08:17:28;18.30;99.90
7598;DHT22;3840;59.32098800;18.06423600;2023-09-19T08:19:54;18.30;99.90
7598;DHT22;3840;59.32098800;18.06423600;2023-09-19T08:22:20;18.30;99.90
7598;DHT22;3840;59.32098800;18.06423600;2023-09-19T08:24:47;18.30;99.90
7598;DHT22;3840;59.32098800;18.06423600;2023-09-19T08:27:13;18.40;99.90
7598;DHT22;3840;59.32098800;18.06423600;2023-09-19T08:29:39;18.40;99.90
7598;DHT22;3840;59.32098800;18.06423600;2023-09-19T08:32:05;18.40;99.90
7598;DHT22;3840;59.32098800;18.06423600;2023-09-19T08:34:30;18.50;99.90
7598;DHT22;3840;59.32098800;18.06423600;2023-09-19T08:36:59;18.50;99.90
7598;DHT22;3840;59.32098800;18.06423600;2023-09-19T08:39:29;18.50;99.90
7598;DHT22;3840;59.32098800;18.06423600;2023-09-19T08:42:00;18.50;99.90
7598;DHT22;3840;59.32098800;18.06423600;2023-09-19T08:44:30;18.60;99.90
7598;DHT22;3840;59.32098800;18.06423600;2023-09-19T08:47:02;18.60;99.90
7598;DHT22;3840;59.32098800;18.06423600;2023-09-19T08:52:28;18.60;99.90
7598;DHT22;3840;59.32098800;18.06423600;2023-09-19T08:54:59;18.70;99.90
7598;DHT22;3840;59.32098800;18.06423600;2023-09-19T08:57:29;18.80;99.90
7598;DHT22;3840;59.32098800;18.06423600;2023-09-19T08:59:59;18.90;99.90
7598;DHT22;3840;59.32098800;18.06423600;2023-09-19T09:02:25;19.10;99.90
7598;DHT22;3840;59.32098800;18.06423600;2023-09-19T09:04:53;19.10;99.90
7598;DHT22;3840;59.32098800;18.06423600;2023-09-19T09:07:20;19.10;99.90
7598;DHT22;3840;59.32098800;18.06423600;2023-09-19T09:10:05;19.20;99.90
7598;DHT22;3840;59.32098800;18.06423600;2023-09-19T09:12:33;19.30;99.90
7598;DHT22;3840;59.32098800;18.06423600;2023-09-19T09:15:02;19.50;99.90
7598;DHT22;3840;59.32098800;18.06423600;2023-09-19T09:17:29;19.70;99.90
7598;DHT22;3840;59.32098800;18.06423600;2023-09-19T09:19:55;19.80;99.90
7598;DHT22;3840;59.32098800;18.06423600;2023-09-19T09:22:21;19.90;99.90
7598;DHT22;3840;59.32098800;18.06423600;2023-09-19T09:24:59;19.80;99.90
7598;DHT22;3840;59.32098800;18.06423600;2023-09-19T09:27:29;19.90;99.90
7598;DHT22;3840;59.32098800;18.06423600;2023-09-19T09:29:55;20.00;99.90
7598;DHT22;3840;59.32098800;18.06423600;2023-09-19T09:32:28;20.00;99.90
7598;DHT22;3840;59.32098800;18.06423600;2023-09-19T09:34:55;20.00;99.90
7598;DHT22;3840;59.32098800;18.06423600;2023-09-19T09:37:21;20.00;99.90
7598;DHT22;3840;59.32098800;18.06423600;2023-09-19T09:39:52;20.10;99.90
7598;DHT22;3840;59.32098800;18.06423600;2023-09-19T09:42:33;20.10;99.90
7598;DHT22;3840;59.32098800;18.06423600;2023-09-19T09:45:23;20.20;99.90
7598;DHT22;3840;59.32098800;18.06423600;2023-09-19T09:47:59;20.20;99.90
7598;DHT22;3840;59.32098800;18.06423600;2023-09-19T09:50:48;20.30;99.90
7598;DHT22;3840;59.32098800;18.06423600;2023-09-19T09:53:27;20.30;99.90
7598;DHT22;3840;59.32098800;18.06423600;2023-09-19T09:58:25;20.00;99.90
7598;DHT22;3840;59.32098800;18.06423600;2023-09-19T10:00:56;20.00;99.90
7598;DHT22;3840;59.32098800;18.06423600;2023-09-19T10:06:06;20.20;99.90
7598;DHT22;3840;59.32098800;18.06423600;2023-09-19T10:08:36;20.20;99.90
7598;DHT22;3840;59.32098800;18.06423600;2023-09-19T10:11:15;20.10;99.90
7598;DHT22;3840;59.32098800;18.06423600;2023-09-19T10:13:43;19.90;99.90
7598;DHT22;3840;59.32098800;18.06423600;2023-09-19T10:16:12;20.10;99.90
7598;DHT22;3840;59.32098800;18.06423600;2023-09-19T10:18:40;20.40;99.90
7598;DHT22;3840;59.32098800;18.06423600;2023-09-19T10:21:09;20.40;99.90
7598;DHT22;3840;59.32098800;18.06423600;2023-09-19T10:23:36;20.50;99.90
7598;DHT22;3840;59.32098800;18.06423600;2023-09-19T10:26:04;20.50;99.90
7598;DHT22;3840;59.32098800;18.06423600;2023-09-19T10:28:30;20.50;99.90
7598;DHT22;3840;59.32098800;18.06423600;2023-09-19T10:30:57;20.60;99.90
7598;DHT22;3840;59.32098800;18.06423600;2023-09-19T10:33:25;20.60;99.90
7598;DHT22;3840;59.32098800;18.06423600;2023-09-19T10:35:51;20.70;99.90
7598;DHT22;3840;59.32098800;18.06423600;2023-09-19T10:38:19;20.50;99.90
7598;DHT22;3840;59.32098800;18.06423600;2023-09-19T10:40:55;20.60;99.90
7598;DHT22;3840;59.32098800;18.06423600;2023-09-19T10:43:33;20.70;99.90
7598;DHT22;3840;59.32098800;18.06423600;2023-09-19T10:46:06;20.90;99.90
7598;DHT22;3840;59.32098800;18.06423600;2023-09-19T10:48:32;21.00;99.90
7598;DHT22;3840;59.32098800;18.06423600;2023-09-19T10:51:19;20.90;99.90
7598;DHT22;3840;59.32098800;18.06423600;2023-09-19T10:53:54;20.80;99.90
7598;DHT22;3840;59.32098800;18.06423600;2023-09-19T10:56:30;20.70;99.90
7598;DHT22;3840;59.32098800;18.06423600;2023-09-19T10:59:16;20.60;99.90
7598;DHT22;3840;59.32098800;18.06423600;2023-09-19T11:04:34;20.60;99.90
7598;DHT22;3840;59.32098800;18.06423600;2023-09-19T11:07:12;20.70;99.90
7598;DHT22;3840;59.32098800;18.06423600;2023-09-19T11:09:44;20.70;99.90
7598;DHT22;3840;59.32098800;18.06423600;2023-09-19T11:15:07;20.80;99.90
7598;DHT22;3840;59.32098800;18.06423600;2023-09-19T11:17:35;20.90;99.90
7598;DHT22;3840;59.32098800;18.06423600;2023-09-19T11:30:42;21.00;99.90
7598;DHT22;3840;59.32098800;18.06423600;2023-09-19T11:33:29;21.00;99.90
7598;DHT22;3840;59.32098800;18.06423600;2023-09-19T11:36:11;21.00;99.90
7598;DHT22;3840;59.32098800;18.06423600;2023-09-19T11:39:00;21.10;99.90
7598;DHT22;3840;59.32098800;18.06423600;2023-09-19T11:41:42;20.90;99.90
7598;DHT22;3840;59.32098800;18.06423600;2023-09-19T11:46:54;20.60;99.90
7598;DHT22;3840;59.32098800;18.06423600;2023-09-19T11:49:29;20.40;99.90
7598;DHT22;3840;59.32098800;18.06423600;2023-09-19T11:51:56;20.30;99.90
7598;DHT22;3840;59.32098800;18.06423600;2023-09-19T11:54:22;20.30;99.90
7598;DHT22;3840;59.32098800;18.06423600;2023-09-19T11:56:51;20.30;99.90
7598;DHT22;3840;59.32098800;18.06423600;2023-09-19T11:59:24;20.30;99.90
7598;DHT22;3840;59.32098800;18.06423600;2023-09-19T12:01:58;20.30;99.90
7598;DHT22;3840;59.32098800;18.06423600;2023-09-19T12:04:42;20.40;99.90
7598;DHT22;3840;59.32098800;18.06423600;2023-09-19T12:07:16;20.30;99.90
7598;DHT22;3840;59.32098800;18.06423600;2023-09-19T12:09:44;20.30;99.90
7598;DHT22;3840;59.32098800;18.06423600;2023-09-19T12:12:22;20.30;99.90
7598;DHT22;3840;59.32098800;18.06423600;2023-09-19T12:14:49;20.40;99.90
7598;DHT22;3840;59.32098800;18.06423600;2023-09-19T12:17:15;20.50;99.90
7598;DHT22;3840;59.32098800;18.06423600;2023-09-19T12:19:50;20.50;99.90
7598;DHT22;3840;59.32098800;18.06423600;2023-09-19T12:22:17;20.50;99.90
7598;DHT22;3840;59.32098800;18.06423600;2023-09-19T12:24:44;20.50;99.90
7598;DHT22;3840;59.32098800;18.06423600;2023-09-19T12:27:11;20.50;99.90
7598;DHT22;3840;59.32098800;18.06423600;2023-09-19T12:29:47;20.60;99.90
7598;DHT22;3840;59.32098800;18.06423600;2023-09-19T12:32:34;20.60;99.90
7598;DHT22;3840;59.32098800;18.06423600;2023-09-19T12:35:00;20.60;99.90
7598;DHT22;3840;59.32098800;18.06423600;2023-09-19T12:37:32;20.50;99.90
7598;DHT22;3840;59.32098800;18.06423600;2023-09-19T12:40:08;20.50;99.90
7598;DHT22;3840;59.32098800;18.06423600;2023-09-19T12:42:47;20.40;99.90
7598;DHT22;3840;59.32098800;18.06423600;2023-09-19T12:45:13;20.40;99.90
7598;DHT22;3840;59.32098800;18.06423600;2023-09-19T12:48:17;20.40;99.90
7598;DHT22;3840;59.32098800;18.06423600;2023-09-19T12:50:26;20.10;99.90
7598;DHT22;3840;59.32098800;18.06423600;2023-09-19T12:52:55;20.10;99.90
7598;DHT22;3840;59.32098800;18.06423600;2023-09-19T12:55:26;20.10;99.90
7598;DHT22;3840;59.32098800;18.06423600;2023-09-19T12:58:01;20.00;99.90
7598;DHT22;3840;59.32098800;18.06423600;2023-09-19T13:00:37;19.90;99.90
7598;DHT22;3840;59.32098800;18.06423600;2023-09-19T13:05:57;19.70;99.90
7598;DHT22;3840;59.32098800;18.06423600;2023-09-19T13:08:37;19.70;99.90
7598;DHT22;3840;59.32098800;18.06423600;2023-09-19T13:11:16;19.70;99.90
7598;DHT22;3840;59.32098800;18.06423600;2023-09-19T13:16:20;19.70;99.90
7598;DHT22;3840;59.32098800;18.06423600;2023-09-19T13:18:50;19.80;99.90
7598;DHT22;3840;59.32098800;18.06423600;2023-09-19T13:21:39;19.70;99.90
7598;DHT22;3840;59.32098800;18.06423600;2023-09-19T13:24:24;19.70;99.90
7598;DHT22;3840;59.32098800;18.06423600;2023-09-19T13:26:55;19.80;99.90
7598;DHT22;3840;59.32098800;18.06423600;2023-09-19T13:29:21;19.80;99.90
7598;DHT22;3840;59.32098800;18.06423600;2023-09-19T13:31:52;19.70;99.90
7598;DHT22;3840;59.32098800;18.06423600;2023-09-19T13:34:21;19.60;99.90
7598;DHT22;3840;59.32098800;18.06423600;2023-09-19T13:36:46;19.50;99.90
7598;DHT22;3840;59.32098800;18.06423600;2023-09-19T13:39:17;19.50;99.90
7598;DHT22;3840;59.32098800;18.06423600;2023-09-19T13:41:49;19.40;99.90
7598;DHT22;3840;59.32098800;18.06423600;2023-09-19T13:44:15;19.30;99.90
7598;DHT22;3840;59.32098800;18.06423600;2023-09-19T13:46:42;19.20;99.90
7598;DHT22;3840;59.32098800;18.06423600;2023-09-19T13:49:11;19.10;99.90
7598;DHT22;3840;59.32098800;18.06423600;2023-09-19T13:51:37;19.00;99.90
7598;DHT22;3840;59.32098800;18.06423600;2023-09-19T13:54:03;18.90;99.90
7598;DHT22;3840;59.32098800;18.06423600;2023-09-19T13:56:28;18.70;99.90
7598;DHT22;3840;59.32098800;18.06423600;2023-09-19T13:58:56;18.60;99.90
7598;DHT22;3840;59.32098800;18.06423600;2023-09-19T14:01:22;18.20;99.90
7598;DHT22;3840;59.32098800;18.06423600;2023-09-19T14:03:48;17.90;99.90
7598;DHT22;3840;59.32098800;18.06423600;2023-09-19T14:06:15;17.70;99.90
7598;DHT22;3840;59.32098800;18.06423600;2023-09-19T14:08:42;17.70;99.90
7598;DHT22;3840;59.32098800;18.06423600;2023-09-19T14:11:08;17.70;99.90
7598;DHT22;3840;59.32098800;18.06423600;2023-09-19T14:13:34;17.70;99.90
7598;DHT22;3840;59.32098800;18.06423600;2023-09-19T14:16:04;17.60;99.90
7598;DHT22;3840;59.32098800;18.06423600;2023-09-19T14:18:31;17.60;99.90
7598;DHT22;3840;59.32098800;18.06423600;2023-09-19T14:20:56;17.60;99.90
7598;DHT22;3840;59.32098800;18.06423600;2023-09-19T14:23:22;17.50;99.90
7598;DHT22;3840;59.32098800;18.06423600;2023-09-19T14:25:50;17.50;99.90
7598;DHT22;3840;59.32098800;18.06423600;2023-09-19T14:28:16;17.50;99.90
7598;DHT22;3840;59.32098800;18.06423600;2023-09-19T14:30:42;17.50;99.90
7598;DHT22;3840;59.32098800;18.06423600;2023-09-19T14:33:07;17.50;99.90
7598;DHT22;3840;59.32098800;18.06423600;2023-09-19T14:35:33;17.60;99.90
7598;DHT22;3840;59.32098800;18.06423600;2023-09-19T14:38:02;17.50;99.90
7598;DHT22;3840;59.32098800;18.06423600;2023-09-19T14:40:27;17.50;99.90